Time,TemperatureF,DewpointF,PressureIn,WindDirection,WindDirectionDegrees,WindSpeedMPH,WindSpeedGustMPH,Humidity,HourlyPrecipIn,Conditions,Clouds,dailyrainin,SoftwareType,DateUTC
2013-02-25 00:03:00,28.9,27.9,0.00,SW,235,2.5,-999.0,96,0.00,,,-99.99,,2013-02-25 09:03:00,
2013-02-25 00:08:00,28.7,27.8,0.00,SW,222,2.2,-999.0,96,0.00,,,-99.99,,2013-02-25 09:08:00,
2013-02-25 00:14:00,29.0,28.0,0.00,South,186,2.5,-999.0,95,0.00,,,-99.99,,2013-02-25 09:14:00,
2013-02-25 00:19:00,28.8,27.7,0.00,South,183,3.5,-999.0,95,0.00,,,-99.99,,2013-02-25 09:19:00,
2013-02-25 00:24:00,28.7,27.6,0.00,South,182,4.0,-999.0,95,0.00,,,-99.99,,2013-02-25 09:24:00,
2013-02-25 00:29:00,28.8,27.7,0.00,SSW,200,3.7,-999.0,95,0.00,,,-99.99,,2013-02-25 09:29:00,
2013-02-25 00:34:00,28.9,27.8,0.00,South,186,3.5,-999.0,95,0.00,,,-99.99,,2013-02-25 09:34:00,
2013-02-25 00:40:00,28.9,27.7,0.00,South,182,3.1,-999.0,95,0.00,,,-99.99,,2013-02-25 09:40:00,
2013-02-25 00:45:00,28.7,27.6,0.00,South,173,3.2,-999.0,95,0.00,,,-99.99,,2013-02-25 09:45:00,
2013-02-25 00:50:00,28.7,27.5,0.00,SSE,163,4.4,-999.0,95,0.00,,,-99.99,,2013-02-25 09:50:00,
2013-02-25 00:55:00,28.9,27.7,0.00,SSE,158,5.7,-999.0,95,0.00,,,-99.99,,2013-02-25 09:55:00,
2013-02-25 01:00:00,28.8,27.5,0.00,SSE,168,3.8,-999.0,94,0.00,,,-99.99,,2013-02-25 10:00:00,
2013-02-25 01:06:00,28.9,27.6,0.00,South,169,3.1,-999.0,95,0.00,,,-99.99,,2013-02-25 10:06:00,
2013-02-25 01:11:00,29.1,28.0,0.00,South,175,0.3,-999.0,95,0.00,,,-99.99,,2013-02-25 10:11:00,
2013-02-25 01:16:00,29.1,28.0,0.00,SSW,195,2.3,-999.0,95,0.00,,,-99.99,,2013-02-25 10:16:00,
2013-02-25 01:21:00,29.1,27.9,0.00,South,187,2.7,-999.0,95,0.00,,,-99.99,,2013-02-25 10:21:00,
2013-02-25 01:26:00,29.0,27.9,0.00,SSW,204,3.1,-999.0,95,0.00,,,-99.99,,2013-02-25 10:26:00,
2013-02-25 01:32:00,29.1,28.0,0.00,SW,228,3.1,-999.0,95,0.00,,,-99.99,,2013-02-25 10:32:00,
2013-02-25 01:37:00,29.0,27.9,0.00,SW,226,2.6,-999.0,95,0.00,,,-99.99,,2013-02-25 10:37:00,
2013-02-25 01:42:00,29.0,28.0,0.00,SW,215,2.9,-999.0,96,0.00,,,-99.99,,2013-02-25 10:42:00,
2013-02-25 01:47:00,29.3,28.3,0.00,SW,225,3.9,-999.0,96,0.00,,,-99.99,,2013-02-25 10:47:00,
2013-02-25 01:52:00,29.0,28.0,0.00,WNW,295,2.7,-999.0,96,0.00,,,-99.99,,2013-02-25 10:52:00,
2013-02-25 01:58:00,28.4,27.6,0.00,West,275,1.4,-999.0,96,0.00,,,-99.99,,2013-02-25 10:58:00,
2013-02-25 02:03:00,28.5,27.8,0.00,SW,234,2.5,-999.0,97,0.00,,,-99.99,,2013-02-25 11:03:00,
2013-02-25 02:08:00,28.9,28.2,0.00,SW,224,3.0,-999.0,97,0.00,,,-99.99,,2013-02-25 11:08:00,
2013-02-25 02:13:00,28.9,28.2,0.00,SSW,194,6.2,-999.0,97,0.00,,,-99.99,,2013-02-25 11:13:00,
2013-02-25 02:18:00,29.0,28.3,0.00,SW,224,5.7,-999.0,97,0.00,,,-99.99,,2013-02-25 11:18:00,
2013-02-25 02:23:00,29.0,28.3,0.00,SW,222,4.5,-999.0,97,0.00,,,-99.99,,2013-02-25 11:23:00,
2013-02-25 02:28:00,29.2,28.5,0.00,SW,228,6.1,-999.0,97,0.00,,,-99.99,,2013-02-25 11:28:00,
2013-02-25 02:33:00,29.0,28.3,0.00,WSW,249,5.2,-999.0,97,0.00,,,-99.99,,2013-02-25 11:33:00,
2013-02-25 02:38:00,28.6,27.8,0.00,SE,135,0.7,-999.0,97,0.00,,,-99.99,,2013-02-25 11:38:00,
2013-02-25 02:43:00,28.1,27.4,0.00,ESE,110,0.0,-999.0,97,0.00,,,-99.99,,2013-02-25 11:43:00,
2013-02-25 02:48:00,27.9,27.2,0.00,West,280,1.7,-999.0,97,0.00,,,-99.99,,2013-02-25 11:48:00,
2013-02-25 02:53:00,27.9,27.3,0.00,WNW,293,3.8,-999.0,97,0.00,,,-99.99,,2013-02-25 11:53:00,
2013-02-25 02:58:00,27.9,27.3,0.00,WSW,258,1.7,-999.0,97,0.00,,,-99.99,,2013-02-25 11:58:00,
2013-02-25 03:03:00,27.8,27.2,0.00,NNE,26,0.1,-999.0,97,0.00,,,-99.99,,2013-02-25 12:03:00,
2013-02-25 03:08:00,27.8,27.1,0.00,SW,231,1.6,-999.0,97,0.00,,,-99.99,,2013-02-25 12:08:00,
2013-02-25 03:13:00,27.8,27.1,0.00,West,265,0.1,-999.0,97,0.00,,,-99.99,,2013-02-25 12:13:00,
2013-02-25 03:18:00,27.9,27.3,0.00,West,270,7.2,-999.0,97,0.00,,,-99.99,,2013-02-25 12:18:00,
2013-02-25 03:23:00,28.6,28.1,0.00,West,264,8.2,-999.0,98,0.00,,,-99.99,,2013-02-25 12:23:00,
2013-02-25 03:28:00,29.1,28.6,0.00,West,261,9.6,-999.0,98,0.00,,,-99.99,,2013-02-25 12:28:00,
2013-02-25 03:33:00,29.0,28.6,0.00,WSW,258,8.5,-999.0,98,0.00,,,-99.99,,2013-02-25 12:33:00,
2013-02-25 03:38:00,29.2,28.8,0.00,WSW,255,8.9,-999.0,98,0.00,,,-99.99,,2013-02-25 12:38:00,
2013-02-25 03:44:00,29.0,28.6,0.00,WSW,251,8.3,-999.0,98,0.00,,,-99.99,,2013-02-25 12:44:00,
2013-02-25 03:50:00,29.2,28.9,0.00,WSW,254,9.2,-999.0,98,0.00,,,-99.99,,2013-02-25 12:50:00,
2013-02-25 03:55:00,29.1,28.9,0.00,WSW,247,8.3,-999.0,99,0.00,,,-99.99,,2013-02-25 12:55:00,
2013-02-25 04:00:00,29.2,28.9,0.00,WSW,248,8.4,-999.0,99,0.00,,,-99.99,,2013-02-25 13:00:00,
2013-02-25 04:05:00,29.1,28.9,0.00,WSW,246,7.2,-999.0,99,0.00,,,-99.99,,2013-02-25 13:05:00,
2013-02-25 04:12:00,29.4,29.1,0.00,WSW,250,10.4,-999.0,99,0.00,,,-99.99,,2013-02-25 13:12:00,
2013-02-25 04:17:00,29.1,28.9,0.00,WSW,255,10.5,-999.0,99,0.00,,,-99.99,,2013-02-25 13:17:00,
2013-02-25 04:23:00,28.9,28.6,0.00,West,270,7.8,-999.0,99,0.00,,,-99.99,,2013-02-25 13:23:00,
2013-02-25 04:28:00,29.1,28.9,0.00,West,279,10.8,-999.0,99,0.00,,,-99.99,,2013-02-25 13:28:00,
2013-02-25 04:34:00,29.2,29.0,0.00,West,272,9.6,-999.0,99,0.00,,,-99.99,,2013-02-25 13:34:00,
2013-02-25 04:40:00,29.4,29.2,0.00,SW,234,1.2,-999.0,99,0.00,,,-99.99,,2013-02-25 13:40:00,
2013-02-25 04:46:00,29.5,29.2,0.00,SSW,207,6.4,-999.0,99,0.00,,,-99.99,,2013-02-25 13:46:00,
2013-02-25 04:51:00,29.5,29.2,0.00,SSW,206,0.4,-999.0,99,0.00,,,-99.99,,2013-02-25 13:51:00,
2013-02-25 04:57:00,29.6,29.3,0.00,NNW,348,1.5,-999.0,99,0.00,,,-99.99,,2013-02-25 13:57:00,
2013-02-25 05:02:00,29.4,29.1,0.00,ESE,109,2.2,-999.0,99,0.00,,,-99.99,,2013-02-25 14:02:00,
2013-02-25 05:07:00,29.1,28.9,0.00,NE,38,3.6,-999.0,99,0.00,,,-99.99,,2013-02-25 14:07:00,
2013-02-25 05:13:00,28.9,28.6,0.00,East,84,3.2,-999.0,99,0.00,,,-99.99,,2013-02-25 14:13:00,
2013-02-25 05:18:00,29.1,29.0,0.00,ENE,57,2.5,-999.0,99,0.00,,,-99.99,,2013-02-25 14:18:00,
2013-02-25 05:23:00,29.1,28.9,0.00,NNW,331,6.1,-999.0,99,0.00,,,-99.99,,2013-02-25 14:23:00,
2013-02-25 05:28:00,29.0,28.8,0.00,ENE,64,3.6,-999.0,99,0.00,,,-99.99,,2013-02-25 14:28:00,
2013-02-25 05:33:00,28.7,28.4,0.00,NNW,333,4.0,-999.0,98,0.00,,,-99.99,,2013-02-25 14:33:00,
2013-02-25 05:38:00,28.5,28.2,0.00,NW,317,1.5,-999.0,99,0.00,,,-99.99,,2013-02-25 14:38:00,
2013-02-25 05:43:00,28.3,28.0,0.00,SE,145,1.9,-999.0,98,0.00,,,-99.99,,2013-02-25 14:43:00,
2013-02-25 05:48:00,27.8,27.4,0.00,WNW,303,0.3,-999.0,98,0.00,,,-99.99,,2013-02-25 14:48:00,
2013-02-25 05:53:00,27.8,27.4,0.00,NE,53,2.0,-999.0,98,0.00,,,-99.99,,2013-02-25 14:53:00,
2013-02-25 05:58:00,27.6,27.2,0.00,NW,305,4.0,-999.0,98,0.00,,,-99.99,,2013-02-25 14:58:00,
2013-02-25 06:03:00,27.8,27.3,0.00,WNW,297,4.1,-999.0,98,0.00,,,-99.99,,2013-02-25 15:03:00,
2013-02-25 06:08:00,27.8,27.4,0.00,NNE,28,4.0,-999.0,98,0.00,,,-99.99,,2013-02-25 15:08:00,
2013-02-25 06:13:00,28.0,27.6,0.00,SSW,208,1.2,-999.0,98,0.00,,,-99.99,,2013-02-25 15:13:00,
2013-02-25 06:18:00,27.9,27.6,0.00,SSE,166,1.1,-999.0,98,0.00,,,-99.99,,2013-02-25 15:18:00,
2013-02-25 06:23:00,27.8,27.4,0.00,NW,321,1.5,-999.0,98,0.00,,,-99.99,,2013-02-25 15:23:00,
2013-02-25 06:28:00,27.7,27.2,0.00,SSE,148,2.6,-999.0,98,0.00,,,-99.99,,2013-02-25 15:28:00,
2013-02-25 06:33:00,27.6,27.2,0.00,SSE,155,1.8,-999.0,98,0.00,,,-99.99,,2013-02-25 15:33:00,
2013-02-25 06:38:00,27.6,27.1,0.00,SE,130,4.2,-999.0,98,0.00,,,-99.99,,2013-02-25 15:38:00,
2013-02-25 06:43:00,27.4,27.0,0.00,ENE,66,1.0,-999.0,98,0.00,,,-99.99,,2013-02-25 15:43:00,
2013-02-25 06:48:00,27.0,26.4,0.00,SSE,159,0.7,-999.0,97,0.00,,,-99.99,,2013-02-25 15:48:00,
2013-02-25 06:53:00,27.1,26.5,0.00,NE,34,2.4,-999.0,97,0.00,,,-99.99,,2013-02-25 15:53:00,
2013-02-25 06:58:00,27.1,26.6,0.00,NE,47,1.6,-999.0,97,0.00,,,-99.99,,2013-02-25 15:58:00,
2013-02-25 07:03:00,27.1,26.5,0.00,SE,140,0.6,-999.0,97,0.00,,,-99.99,,2013-02-25 16:03:00,
2013-02-25 07:08:00,27.5,26.9,0.00,North,2,3.5,-999.0,97,0.00,,,-99.99,,2013-02-25 16:08:00,
2013-02-25 07:13:00,27.5,26.9,0.00,NW,305,2.5,-999.0,97,0.00,,,-99.99,,2013-02-25 16:13:00,
2013-02-25 07:18:00,27.4,26.7,0.00,SSW,201,2.1,-999.0,97,0.00,,,-99.99,,2013-02-25 16:18:00,
2013-02-25 07:23:00,27.5,26.8,0.00,North,0,4.0,-999.0,97,0.00,,,-99.99,,2013-02-25 16:23:00,
2013-02-25 07:28:00,27.5,26.8,0.00,WSW,251,8.2,-999.0,97,0.00,,,-99.99,,2013-02-25 16:28:00,
2013-02-25 07:33:00,27.5,26.8,0.00,NW,309,5.9,-999.0,97,0.00,,,-99.99,,2013-02-25 16:33:00,
2013-02-25 07:38:00,27.3,26.5,0.00,WNW,286,4.5,-999.0,96,0.00,,,-99.99,,2013-02-25 16:38:00,
2013-02-25 07:43:00,27.5,26.7,0.00,NE,43,4.9,-999.0,96,0.00,,,-99.99,,2013-02-25 16:43:00,
2013-02-25 07:48:00,27.5,26.6,0.00,NW,305,5.3,-999.0,96,0.00,,,-99.99,,2013-02-25 16:48:00,
2013-02-25 07:53:00,27.6,26.8,0.00,SW,229,10.9,-999.0,96,0.00,,,-99.99,,2013-02-25 16:53:00,
2013-02-25 07:58:00,27.6,26.8,0.00,WNW,284,16.7,-999.0,96,0.00,,,-99.99,,2013-02-25 16:58:00,
2013-02-25 08:03:00,27.6,26.8,0.00,West,279,14.9,-999.0,96,0.00,,,-99.99,,2013-02-25 17:03:00,
2013-02-25 08:08:00,27.8,26.9,0.00,West,272,16.4,-999.0,96,0.00,,,-99.99,,2013-02-25 17:08:00,
2013-02-25 08:13:00,27.7,26.9,0.00,WNW,296,13.5,-999.0,96,0.00,,,-99.99,,2013-02-25 17:13:00,
2013-02-25 08:18:00,28.0,27.1,0.00,WNW,295,21.0,-999.0,96,0.00,,,-99.99,,2013-02-25 17:18:00,
2013-02-25 08:23:00,27.9,27.0,0.00,West,272,17.0,-999.0,96,0.00,,,-99.99,,2013-02-25 17:23:00,
2013-02-25 08:28:00,28.0,27.1,0.00,West,276,17.1,-999.0,96,0.00,,,-99.99,,2013-02-25 17:28:00,
2013-02-25 08:33:00,28.0,27.0,0.00,West,273,16.6,-999.0,96,0.00,,,-99.99,,2013-02-25 17:33:00,
2013-02-25 08:38:00,28.0,26.9,0.00,West,271,22.8,-999.0,95,0.00,,,-99.99,,2013-02-25 17:38:00,
2013-02-25 08:43:00,28.0,26.9,0.00,West,271,18.5,-999.0,95,0.00,,,-99.99,,2013-02-25 17:43:00,
2013-02-25 08:48:00,28.1,27.0,0.00,West,265,16.6,-999.0,95,0.00,,,-99.99,,2013-02-25 17:48:00,
2013-02-25 08:53:00,28.1,27.0,0.00,West,263,19.2,-999.0,95,0.00,,,-99.99,,2013-02-25 17:53:00,
2013-02-25 08:58:00,28.2,27.1,0.00,West,263,20.3,-999.0,95,0.00,,,-99.99,,2013-02-25 17:58:00,
2013-02-25 09:03:00,28.3,27.1,0.00,West,267,27.4,-999.0,95,0.00,,,-99.99,,2013-02-25 18:03:00,
2013-02-25 09:08:00,28.4,27.2,0.00,West,261,24.2,-999.0,95,0.00,,,-99.99,,2013-02-25 18:08:00,
2013-02-25 09:13:00,28.5,27.3,0.00,West,262,18.2,-999.0,95,0.00,,,-99.99,,2013-02-25 18:13:00,
2013-02-25 09:18:00,28.4,27.1,0.00,West,262,23.4,-999.0,94,0.00,,,-99.99,,2013-02-25 18:18:00,
2013-02-25 09:23:00,28.6,27.3,0.00,WSW,256,20.1,-999.0,95,0.00,,,-99.99,,2013-02-25 18:23:00,
2013-02-25 09:28:00,28.6,27.3,0.00,WSW,254,25.1,-999.0,94,0.00,,,-99.99,,2013-02-25 18:28:00,
2013-02-25 09:33:00,28.8,27.4,0.00,West,265,23.5,-999.0,94,0.00,,,-99.99,,2013-02-25 18:33:00,
2013-02-25 09:38:00,28.7,27.3,0.00,WSW,258,24.9,-999.0,94,0.00,,,-99.99,,2013-02-25 18:38:00,
2013-02-25 09:43:00,29.1,27.6,0.00,West,269,21.0,-999.0,94,0.00,,,-99.99,,2013-02-25 18:43:00,
2013-02-25 09:48:00,29.2,27.6,0.00,WSW,258,25.4,-999.0,93,0.00,,,-99.99,,2013-02-25 18:48:00,
2013-02-25 09:54:00,29.1,27.5,0.00,WSW,254,20.8,-999.0,93,0.00,,,-99.99,,2013-02-25 18:54:00,
2013-02-25 09:59:00,29.2,27.7,0.00,West,260,20.9,-999.0,93,0.00,,,-99.99,,2013-02-25 18:59:00,
2013-02-25 10:04:00,29.4,27.8,0.00,West,263,22.2,-999.0,93,0.00,,,-99.99,,2013-02-25 19:04:00,
2013-02-25 10:09:00,29.5,27.8,0.00,West,262,23.1,-999.0,93,0.00,,,-99.99,,2013-02-25 19:09:00,
2013-02-25 10:14:00,29.1,28.3,0.00,West,266,20.0,-999.0,96,0.00,,,-99.99,,2013-02-25 19:14:00,
2013-02-25 10:19:00,29.1,28.5,0.00,West,259,20.8,-999.0,97,0.00,,,-99.99,,2013-02-25 19:19:00,
2013-02-25 10:24:00,29.5,28.8,0.00,WSW,254,21.2,-999.0,97,0.00,,,-99.99,,2013-02-25 19:24:00,
2013-02-25 10:29:00,29.4,28.5,0.00,WSW,250,26.0,-999.0,96,0.00,,,-99.99,,2013-02-25 19:29:00,
2013-02-25 10:34:00,29.4,28.5,0.00,WSW,252,22.3,-999.0,96,0.00,,,-99.99,,2013-02-25 19:34:00,
2013-02-25 10:40:00,29.3,28.7,0.00,West,262,31.9,-999.0,97,0.00,,,-99.99,,2013-02-25 19:40:00,
2013-02-25 10:45:00,29.4,29.0,0.00,WSW,242,27.0,-999.0,98,0.00,,,-99.99,,2013-02-25 19:45:00,
2013-02-25 10:50:00,29.0,28.6,0.00,WSW,251,23.1,-999.0,98,0.00,,,-99.99,,2013-02-25 19:50:00,
2013-02-25 10:55:00,29.2,28.8,0.00,West,260,23.8,-999.0,98,0.00,,,-99.99,,2013-02-25 19:55:00,
2013-02-25 11:00:00,29.2,28.7,0.00,WSW,252,30.2,-999.0,98,0.00,,,-99.99,,2013-02-25 20:00:00,
2013-02-25 11:06:00,29.5,28.8,0.00,WSW,251,21.4,-999.0,97,0.00,,,-99.99,,2013-02-25 20:06:00,
2013-02-25 11:12:00,29.8,29.0,0.00,SW,227,24.1,-999.0,97,0.00,,,-99.99,,2013-02-25 20:12:00,
2013-02-25 11:19:00,30.0,28.6,0.00,WSW,245,24.1,-999.0,94,0.00,,,-99.99,,2013-02-25 20:19:00,
2013-02-25 11:24:00,30.1,29.1,0.00,WSW,249,22.3,-999.0,96,0.00,,,-99.99,,2013-02-25 20:24:00,
2013-02-25 11:29:00,30.1,28.2,0.00,WSW,254,29.2,-999.0,92,0.00,,,-99.99,,2013-02-25 20:29:00,
2013-02-25 11:34:00,30.2,28.3,0.00,WSW,247,21.7,-999.0,92,0.00,,,-99.99,,2013-02-25 20:34:00,
2013-02-25 11:39:00,30.3,27.6,0.00,West,259,25.3,-999.0,89,0.00,,,-99.99,,2013-02-25 20:39:00,
2013-02-25 11:45:00,30.3,27.6,0.00,West,261,31.4,-999.0,89,0.00,,,-99.99,,2013-02-25 20:45:00,
2013-02-25 11:50:00,30.6,28.0,0.00,WSW,254,22.2,-999.0,90,0.00,,,-99.99,,2013-02-25 20:50:00,
2013-02-25 11:55:00,30.2,27.5,0.00,WSW,243,30.3,-999.0,89,0.00,,,-99.99,,2013-02-25 20:55:00,
2013-02-25 12:00:00,30.0,27.9,0.00,WSW,239,25.9,-999.0,91,0.00,,,-99.99,,2013-02-25 21:00:00,
2013-02-25 12:05:00,30.3,28.2,0.00,WSW,240,30.0,-999.0,91,0.00,,,-99.99,,2013-02-25 21:05:00,
2013-02-25 12:11:00,29.8,28.5,0.00,West,261,28.4,-999.0,94,0.00,,,-99.99,,2013-02-25 21:11:00,
2013-02-25 12:16:00,29.7,28.7,0.00,WSW,246,22.9,-999.0,96,0.00,,,-99.99,,2013-02-25 21:16:00,
2013-02-25 12:21:00,30.0,28.7,0.00,WSW,252,24.2,-999.0,95,0.00,,,-99.99,,2013-02-25 21:21:00,
2013-02-25 12:26:00,29.7,28.5,0.00,West,262,30.9,-999.0,95,0.01,,,-99.99,,2013-02-25 21:26:00,
2013-02-25 12:31:00,29.3,28.8,0.00,WSW,252,27.0,-999.0,98,0.01,,,-99.99,,2013-02-25 21:31:00,
2013-02-25 12:37:00,29.4,29.0,0.00,WSW,255,30.5,-999.0,98,0.01,,,-99.99,,2013-02-25 21:37:00,
2013-02-25 12:42:00,29.7,29.2,0.00,WSW,246,24.7,-999.0,98,0.01,,,-99.99,,2013-02-25 21:42:00,
2013-02-25 12:47:00,30.1,29.3,0.00,WSW,243,25.2,-999.0,96,0.01,,,-99.99,,2013-02-25 21:47:00,
2013-02-25 12:52:00,30.1,29.0,0.00,WSW,251,34.7,-999.0,95,0.01,,,-99.99,,2013-02-25 21:52:00,
2013-02-25 12:58:00,30.3,29.5,0.00,SW,226,31.0,-999.0,96,0.01,,,-99.99,,2013-02-25 21:58:00,
2013-02-25 13:03:00,30.0,29.5,0.00,West,259,40.3,-999.0,98,0.00,,,-99.99,,2013-02-25 22:03:00,
2013-02-25 13:08:00,29.5,29.1,0.00,WSW,258,40.4,-999.0,98,0.00,,,-99.99,,2013-02-25 22:08:00,
2013-02-25 13:13:00,29.4,29.1,0.00,WSW,252,29.8,-999.0,98,0.00,,,-99.99,,2013-02-25 22:13:00,
2013-02-25 13:18:00,29.4,29.1,0.00,WSW,258,26.7,-999.0,99,0.00,,,-99.99,,2013-02-25 22:18:00,
2013-02-25 13:23:00,29.4,29.2,0.00,West,266,29.7,-999.0,99,0.03,,,-99.99,,2013-02-25 22:23:00,
2013-02-25 13:29:00,28.9,28.6,0.00,West,266,34.2,-999.0,98,0.03,,,-99.99,,2013-02-25 22:29:00,
2013-02-25 13:34:00,28.9,28.7,0.00,West,260,37.7,-999.0,99,0.03,,,-99.99,,2013-02-25 22:34:00,
2013-02-25 13:39:00,28.8,28.6,0.00,WSW,249,29.9,-999.0,99,0.03,,,-99.99,,2013-02-25 22:39:00,
2013-02-25 13:44:00,29.3,29.1,0.00,WSW,240,24.4,-999.0,99,0.03,,,-99.99,,2013-02-25 22:44:00,
2013-02-25 13:49:00,29.1,28.8,0.00,SW,233,43.8,-999.0,99,0.03,,,-99.99,,2013-02-25 22:49:00,
2013-02-25 13:55:00,28.3,28.0,0.00,WSW,238,38.0,-999.0,98,0.03,,,-99.99,,2013-02-25 22:55:00,
2013-02-25 14:00:00,28.7,28.5,0.00,WSW,244,36.8,-999.0,99,0.00,,,-99.99,,2013-02-25 23:00:00,
2013-02-25 14:05:00,29.1,28.8,0.00,WSW,252,28.2,-999.0,99,0.00,,,-99.99,,2013-02-25 23:05:00,
2013-02-25 14:10:00,29.1,28.9,0.00,WSW,254,29.4,-999.0,99,0.00,,,-99.99,,2013-02-25 23:10:00,
2013-02-25 14:15:00,29.3,29.1,0.00,WSW,250,35.4,-999.0,99,0.00,,,-99.99,,2013-02-25 23:15:00,
2013-02-25 14:21:00,29.4,29.2,0.00,SW,235,32.3,-999.0,99,0.00,,,-99.99,,2013-02-25 23:21:00,
2013-02-25 14:26:00,29.3,29.1,0.00,WSW,246,24.5,-999.0,99,0.00,,,-99.99,,2013-02-25 23:26:00,
2013-02-25 14:31:00,29.5,29.3,0.00,WSW,250,26.3,-999.0,99,0.00,,,-99.99,,2013-02-25 23:31:00,
2013-02-25 14:36:00,29.2,29.0,0.00,SW,235,21.9,-999.0,99,0.00,,,-99.99,,2013-02-25 23:36:00,
2013-02-25 14:41:00,29.4,29.2,0.00,WSW,254,24.8,-999.0,99,0.00,,,-99.99,,2013-02-25 23:41:00,
2013-02-25 14:47:00,29.2,29.0,0.00,WSW,239,35.5,-999.0,99,0.01,,,-99.99,,2013-02-25 23:47:00,
2013-02-25 14:52:00,29.2,29.0,0.00,WSW,245,30.8,-999.0,99,0.01,,,-99.99,,2013-02-25 23:52:00,
2013-02-25 14:57:00,29.4,29.2,0.00,WSW,252,29.8,-999.0,99,0.01,,,-99.99,,2013-02-25 23:57:00,
2013-02-25 15:02:00,29.4,29.2,0.00,WSW,238,29.8,-999.0,99,0.02,,,-99.99,,2013-02-26 00:02:00,
2013-02-25 15:07:00,29.5,29.4,0.00,WSW,245,32.1,-999.0,99,0.04,,,-99.99,,2013-02-26 00:07:00,
2013-02-25 15:13:00,29.7,29.5,0.00,SW,229,29.3,-999.0,99,0.04,,,-99.99,,2013-02-26 00:13:00,
2013-02-25 15:18:00,29.7,29.5,0.00,SW,221,28.2,-999.0,99,0.04,,,-99.99,,2013-02-26 00:18:00,
2013-02-25 15:23:00,29.7,29.5,0.00,SW,228,31.4,-999.0,99,0.04,,,-99.99,,2013-02-26 00:23:00,
2013-02-25 15:28:00,29.5,29.4,0.00,SW,221,30.0,-999.0,99,0.04,,,-99.99,,2013-02-26 00:28:00,
2013-02-25 15:33:00,29.8,29.6,0.00,SW,220,20.4,-999.0,99,0.04,,,-99.99,,2013-02-26 00:33:00,
2013-02-25 15:39:00,29.7,29.5,0.00,WSW,241,31.4,-999.0,99,0.04,,,-99.99,,2013-02-26 00:39:00,
2013-02-25 15:44:00,29.9,29.7,0.00,SW,222,26.6,-999.0,99,0.04,,,-99.99,,2013-02-26 00:44:00,
2013-02-25 15:49:00,29.6,29.4,0.00,SW,233,30.3,-999.0,99,0.04,,,-99.99,,2013-02-26 00:49:00,
2013-02-25 15:54:00,29.8,29.6,0.00,SW,234,25.2,-999.0,99,0.04,,,-99.99,,2013-02-26 00:54:00,
2013-02-25 15:59:00,29.7,29.5,0.00,SW,229,28.6,-999.0,99,0.00,,,-99.99,,2013-02-26 00:59:00,
2013-02-25 16:05:00,29.9,29.7,0.00,SW,230,37.0,-999.0,99,0.00,,,-99.99,,2013-02-26 01:05:00,
2013-02-25 16:10:00,29.9,29.7,0.00,SW,225,29.9,-999.0,99,0.00,,,-99.99,,2013-02-26 01:10:00,
2013-02-25 16:15:00,29.6,29.4,0.00,SW,230,26.8,-999.0,99,0.00,,,-99.99,,2013-02-26 01:15:00,
2013-02-25 16:20:00,29.7,29.5,0.00,SW,227,23.0,-999.0,99,0.00,,,-99.99,,2013-02-26 01:20:00,
2013-02-25 16:25:00,29.6,29.4,0.00,SSW,212,28.0,-999.0,99,0.00,,,-99.99,,2013-02-26 01:25:00,
2013-02-25 16:31:00,29.6,29.4,0.00,SW,235,29.5,-999.0,99,0.00,,,-99.99,,2013-02-26 01:31:00,
2013-02-25 16:36:00,29.7,29.5,0.00,SW,221,26.7,-999.0,99,0.00,,,-99.99,,2013-02-26 01:36:00,
2013-02-25 16:41:00,29.7,29.5,0.00,SW,220,24.8,-999.0,99,0.00,,,-99.99,,2013-02-26 01:41:00,
2013-02-25 16:46:00,29.8,29.6,0.00,SW,232,29.0,-999.0,99,0.00,,,-99.99,,2013-02-26 01:46:00,
2013-02-25 16:51:00,29.7,29.5,0.00,SW,221,27.8,-999.0,99,0.01,,,-99.99,,2013-02-26 01:51:00,
2013-02-25 16:58:00,30.0,29.8,0.00,SSW,213,26.4,-999.0,99,0.01,,,-99.99,,2013-02-26 01:58:00,
2013-02-25 17:03:00,29.9,29.7,0.00,SSW,207,26.7,-999.0,99,0.00,,,-99.99,,2013-02-26 02:03:00,
2013-02-25 17:10:00,30.1,29.9,0.00,SW,220,24.3,-999.0,99,0.00,,,-99.99,,2013-02-26 02:10:00,
2013-02-25 17:15:00,30.0,29.9,0.00,SW,232,33.8,-999.0,99,0.01,,,-99.99,,2013-02-26 02:15:00,
2013-02-25 17:20:00,30.2,30.1,0.00,SW,218,36.4,-999.0,99,0.01,,,-99.99,,2013-02-26 02:20:00,
2013-02-25 17:25:00,30.0,29.9,0.00,SSW,212,26.3,-999.0,99,0.01,,,-99.99,,2013-02-26 02:25:00,
2013-02-25 17:30:00,30.1,29.9,0.00,SW,228,25.4,-999.0,99,0.01,,,-99.99,,2013-02-26 02:30:00,
2013-02-25 17:36:00,30.2,30.1,0.00,SSW,208,31.8,-999.0,99,0.01,,,-99.99,,2013-02-26 02:36:00,
2013-02-25 17:41:00,30.1,30.0,0.00,SSW,202,26.2,-999.0,99,0.01,,,-99.99,,2013-02-26 02:41:00,
2013-02-25 17:46:00,30.1,29.9,0.00,SSW,203,36.4,-999.0,99,0.01,,,-99.99,,2013-02-26 02:46:00,
2013-02-25 17:51:00,30.2,30.0,0.00,SSW,198,29.3,-999.0,99,0.01,,,-99.99,,2013-02-26 02:51:00,
2013-02-25 17:56:00,30.0,29.9,0.00,SSW,192,33.1,-999.0,99,0.01,,,-99.99,,2013-02-26 02:56:00,
2013-02-25 18:02:00,30.3,30.1,0.00,SW,217,47.5,-999.0,99,0.00,,,-99.99,,2013-02-26 03:02:00,
2013-02-25 18:07:00,30.2,30.0,0.00,SSW,207,32.7,-999.0,99,0.00,,,-99.99,,2013-02-26 03:07:00,
2013-02-25 18:12:00,30.4,30.2,0.00,SSW,201,43.9,-999.0,99,0.00,,,-99.99,,2013-02-26 03:12:00,
2013-02-25 18:17:00,30.3,30.1,0.00,SSW,211,29.8,-999.0,99,0.00,,,-99.99,,2013-02-26 03:17:00,
2013-02-25 18:22:00,30.5,30.3,0.00,SSW,202,34.8,-999.0,99,0.00,,,-99.99,,2013-02-26 03:22:00,
2013-02-25 18:28:00,30.4,30.2,0.00,South,188,48.0,-999.0,99,0.00,,,-99.99,,2013-02-26 03:28:00,
2013-02-25 18:33:00,30.4,30.2,0.00,SSW,192,38.7,-999.0,99,0.00,,,-99.99,,2013-02-26 03:33:00,
2013-02-25 18:38:00,30.3,30.2,0.00,SSW,207,33.5,-999.0,99,0.00,,,-99.99,,2013-02-26 03:38:00,
2013-02-25 18:43:00,30.3,30.2,0.00,South,190,33.4,-999.0,99,0.00,,,-99.99,,2013-02-26 03:43:00,
2013-02-25 18:48:00,30.2,30.1,0.00,SSW,205,39.7,-999.0,99,0.00,,,-99.99,,2013-02-26 03:48:00,
2013-02-25 18:54:00,30.5,30.3,0.00,South,186,37.3,-999.0,99,0.00,,,-99.99,,2013-02-26 03:54:00,
2013-02-25 18:59:00,30.6,30.5,0.00,SSW,193,49.1,-999.0,99,0.00,,,-99.99,,2013-02-26 03:59:00,
2013-02-25 19:04:00,30.5,30.4,0.00,South,190,38.5,-999.0,99,0.00,,,-99.99,,2013-02-26 04:04:00,
2013-02-25 19:09:00,30.6,30.5,0.00,SSW,203,37.3,-999.0,99,0.00,,,-99.99,,2013-02-26 04:09:00,
2013-02-25 19:14:00,30.6,30.4,0.00,South,186,35.4,-999.0,99,0.00,,,-99.99,,2013-02-26 04:14:00,
2013-02-25 19:20:00,30.7,30.6,0.00,SSW,213,38.3,-999.0,99,0.00,,,-99.99,,2013-02-26 04:20:00,
2013-02-25 19:25:00,30.6,30.5,0.00,South,190,39.3,-999.0,99,0.03,,,-99.99,,2013-02-26 04:25:00,
2013-02-25 19:30:00,30.8,30.6,0.00,South,181,35.4,-999.0,99,0.05,,,-99.99,,2013-02-26 04:30:00,
2013-02-25 19:35:00,30.8,30.6,0.00,South,185,37.1,-999.0,99,0.05,,,-99.99,,2013-02-26 04:35:00,
2013-02-25 19:40:00,30.7,30.6,0.00,South,181,30.8,-999.0,99,0.05,,,-99.99,,2013-02-26 04:40:00,
2013-02-25 19:46:00,30.7,30.6,0.00,SSW,197,45.6,-999.0,99,0.05,,,-99.99,,2013-02-26 04:46:00,
2013-02-25 19:51:00,30.7,30.6,0.00,South,176,33.7,-999.0,99,0.05,,,-99.99,,2013-02-26 04:51:00,
2013-02-25 19:56:00,30.6,30.6,0.00,South,189,37.9,-999.0,99,0.05,,,-99.99,,2013-02-26 04:56:00,
2013-02-25 20:00:00,30.7,30.6,0.00,South,173,41.2,-999.0,99,0.00,,,-99.99,,2013-02-26 05:00:00,
2013-02-25 20:01:00,30.8,30.6,0.00,South,177,23.9,-999.0,99,0.00,,,-99.99,,2013-02-26 05:01:00,
2013-02-25 20:06:00,30.8,30.6,0.00,South,189,43.5,-999.0,99,0.00,,,-99.99,,2013-02-26 05:06:00,
2013-02-25 20:08:00,30.7,30.6,0.00,South,182,39.2,-999.0,99,0.00,,,-99.99,,2013-02-26 05:08:00,
2013-02-25 20:13:00,30.8,30.7,0.00,South,177,32.8,-999.0,99,0.00,,,-99.99,,2013-02-26 05:13:00,
2013-02-25 20:14:00,30.8,30.7,0.00,South,175,41.2,-999.0,99,0.00,,,-99.99,,2013-02-26 05:14:00,
2013-02-25 20:19:00,30.8,30.7,0.00,South,186,37.6,-999.0,99,0.00,,,-99.99,,2013-02-26 05:19:00,
2013-02-25 20:24:00,30.9,30.8,0.00,SSW,192,43.4,-999.0,99,0.00,,,-99.99,,2013-02-26 05:24:00,
2013-02-25 20:29:00,30.8,30.7,0.00,South,172,30.4,-999.0,99,0.00,,,-99.99,,2013-02-26 05:29:00,
2013-02-25 20:34:00,30.9,30.8,0.00,SSW,194,40.2,-999.0,99,0.00,,,-99.99,,2013-02-26 05:34:00,
2013-02-25 20:39:00,30.9,30.8,0.00,South,179,33.3,-999.0,99,0.11,,,-99.99,,2013-02-26 05:39:00,
2013-02-25 20:44:00,31.0,30.9,0.00,SSW,202,34.1,-999.0,99,0.12,,,-99.99,,2013-02-26 05:44:00,
2013-02-25 20:49:00,30.8,30.7,0.00,South,185,31.0,-999.0,99,0.13,,,-99.99,,2013-02-26 05:49:00,
2013-02-25 20:54:00,31.0,30.9,0.00,South,182,32.5,-999.0,99,0.13,,,-99.99,,2013-02-26 05:54:00,
2013-02-25 20:59:00,31.0,30.9,0.00,South,179,34.8,-999.0,99,0.00,,,-99.99,,2013-02-26 05:59:00,
2013-02-25 21:04:00,31.0,30.8,0.00,South,184,33.6,-999.0,99,0.00,,,-99.99,,2013-02-26 06:04:00,
2013-02-25 21:09:00,31.0,30.9,0.00,South,185,44.4,-999.0,99,0.00,,,-99.99,,2013-02-26 06:09:00,
2013-02-25 21:14:00,31.0,30.9,0.00,SSW,196,35.6,-999.0,99,0.00,,,-99.99,,2013-02-26 06:14:00,
2013-02-25 21:19:00,31.2,31.1,0.00,South,177,41.8,-999.0,99,0.00,,,-99.99,,2013-02-26 06:19:00,
2013-02-25 21:24:00,31.1,31.0,0.00,SSW,200,35.3,-999.0,99,0.02,,,-99.99,,2013-02-26 06:24:00,
2013-02-25 21:29:00,31.1,31.0,0.00,South,183,47.8,-999.0,99,0.03,,,-99.99,,2013-02-26 06:29:00,
2013-02-25 21:34:00,31.2,31.1,0.00,South,191,44.5,-999.0,99,0.03,,,-99.99,,2013-02-26 06:34:00,
2013-02-25 21:39:00,31.1,31.0,0.00,South,183,33.8,-999.0,99,0.03,,,-99.99,,2013-02-26 06:39:00,
2013-02-25 21:44:00,31.1,31.0,0.00,SSW,201,40.0,-999.0,99,0.03,,,-99.99,,2013-02-26 06:44:00,
2013-02-25 21:49:00,31.2,31.1,0.00,South,174,32.3,-999.0,99,0.03,,,-99.99,,2013-02-26 06:49:00,
2013-02-25 21:54:00,31.3,31.2,0.00,South,187,36.5,-999.0,99,0.03,,,-99.99,,2013-02-26 06:54:00,
2013-02-25 22:00:00,31.2,31.1,0.00,South,183,36.6,-999.0,99,0.00,,,-99.99,,2013-02-26 07:00:00,
2013-02-25 22:05:00,31.3,31.2,0.00,South,182,39.2,-999.0,99,0.00,,,-99.99,,2013-02-26 07:05:00,
2013-02-25 22:10:00,31.1,31.0,0.00,South,189,38.9,-999.0,99,0.02,,,-99.99,,2013-02-26 07:10:00,
2013-02-25 22:15:00,31.1,31.1,0.00,South,178,31.7,-999.0,99,0.02,,,-99.99,,2013-02-26 07:15:00,
2013-02-25 22:22:00,31.3,31.2,0.00,South,183,35.6,-999.0,99,0.05,,,-99.99,,2013-02-26 07:22:00,
2013-02-25 22:27:00,31.2,31.2,0.00,South,178,47.7,-999.0,99,0.15,,,-99.99,,2013-02-26 07:27:00,
2013-02-25 22:32:00,31.4,31.3,0.00,South,184,41.0,-999.0,99,0.15,,,-99.99,,2013-02-26 07:32:00,
2013-02-25 22:37:00,31.3,31.2,0.00,South,182,46.7,-999.0,99,0.15,,,-99.99,,2013-02-26 07:37:00,
2013-02-25 22:42:00,31.3,31.2,0.00,South,188,38.5,-999.0,99,0.17,,,-99.99,,2013-02-26 07:42:00,
2013-02-25 22:48:00,31.4,31.3,0.00,South,191,35.8,-999.0,99,0.17,,,-99.99,,2013-02-26 07:48:00,
2013-02-25 22:53:00,31.4,31.3,0.00,South,186,35.9,-999.0,99,0.17,,,-99.99,,2013-02-26 07:53:00,
2013-02-25 22:58:00,31.2,31.0,0.00,South,183,47.9,-999.0,100,0.17,,,-99.99,,2013-02-26 07:58:00,
2013-02-25 23:03:00,31.4,31.0,0.00,South,173,38.5,-999.0,100,0.00,,,-99.99,,2013-02-26 08:03:00,
2013-02-25 23:08:00,31.3,31.0,0.00,South,182,46.7,-999.0,100,0.10,,,-99.99,,2013-02-26 08:08:00,
2013-02-25 23:13:00,31.4,31.0,0.00,SSW,197,40.5,-999.0,100,0.10,,,-99.99,,2013-02-26 08:13:00,
2013-02-25 23:18:00,31.4,31.0,0.00,SSW,194,43.5,-999.0,100,0.10,,,-99.99,,2013-02-26 08:18:00,
2013-02-25 23:23:00,31.3,31.0,0.00,South,187,37.7,-999.0,100,0.10,,,-99.99,,2013-02-26 08:23:00,
2013-02-25 23:28:00,31.4,31.0,0.00,South,184,37.2,-999.0,100,0.13,,,-99.99,,2013-02-26 08:28:00,
2013-02-25 23:33:00,31.5,31.0,0.00,South,174,36.3,-999.0,100,0.13,,,-99.99,,2013-02-26 08:33:00,
2013-02-25 23:38:00,31.3,31.0,0.00,South,178,33.6,-999.0,100,0.16,,,-99.99,,2013-02-26 08:38:00,
2013-02-25 23:43:00,31.4,31.0,0.00,South,183,35.2,-999.0,100,0.16,,,-99.99,,2013-02-26 08:43:00,
2013-02-25 23:48:00,31.4,31.0,0.00,South,188,44.5,-999.0,100,0.16,,,-99.99,,2013-02-26 08:48:00,
2013-02-25 23:53:00,31.4,31.0,0.00,South,184,37.2,-999.0,100,0.16,,,-99.99,,2013-02-26 08:53:00,
2013-02-25 23:58:00,31.5,31.0,0.00,South,186,29.7,-999.0,100,0.16,,,-99.99,,2013-02-26 08:58:00,